createdAt,value
2022-08-17T07:30:20.911Z,6.03
2022-08-17T07:32:53.491Z,6.90
2022-08-17T07:35:41.295Z,7.00
2022-08-17T07:38:24.857Z,7.40
2022-08-17T07:41:03.864Z,7.87
2022-08-17T07:43:35.598Z,8.00
2022-08-17T07:46:38.174Z,9.33
2022-08-17T07:49:34.719Z,9.30
2022-08-17T07:52:24.825Z,9.43
2022-08-17T07:54:56.158Z,9.87
2022-08-17T07:57:36.956Z,10.50
2022-08-17T08:00:12.802Z,9.03
2022-08-17T08:02:58.679Z,11.17
2022-08-17T08:05:49.243Z,10.97
2022-08-17T08:08:30.551Z,12.10
2022-08-17T08:11:02.025Z,12.17
2022-08-17T08:13:32.376Z,11.03
2022-08-17T08:16:25.481Z,10.60
2022-08-17T08:18:58.225Z,11.27
2022-08-17T08:21:36.877Z,11.67
2022-08-17T08:24:36.761Z,12.30
2022-08-17T08:27:16.780Z,11.17
2022-08-17T08:29:52.850Z,12.40
2022-08-17T08:32:31.150Z,12.00
2022-08-17T08:35:07.711Z,11.93
2022-08-17T08:38:07.418Z,11.80
2022-08-17T08:40:57.616Z,11.43
2022-08-17T08:43:36.866Z,12.40
2022-08-17T08:46:15.705Z,13.97
2022-08-17T08:49:12.046Z,12.87
2022-08-17T08:51:53.101Z,14.47
2022-08-17T08:54:34.776Z,13.20
2022-08-17T08:57:26.447Z,13.67
2022-08-17T09:00:08.328Z,12.83
2022-08-17T09:02:55.464Z,12.80
2022-08-17T09:05:34.945Z,12.43
2022-08-17T09:08:13.872Z,11.80
2022-08-17T09:11:03.622Z,11.53
2022-08-17T09:13:41.633Z,12.10
2022-08-17T09:16:16.548Z,12.97
2022-08-17T09:19:00.795Z,11.90
2022-08-17T09:21:48.241Z,14.90
2022-08-17T09:24:25.821Z,14.03
2022-08-17T09:27:00.085Z,16.10
2022-08-17T09:29:35.075Z,16.63
2022-08-17T09:32:10.768Z,14.87
2022-08-17T09:34:48.554Z,17.40
2022-08-17T09:37:24.113Z,16.17
2022-08-17T09:40:04.581Z,17.17
2022-08-17T09:42:43.753Z,16.07
2022-08-17T09:45:24.990Z,13.37
2022-08-17T09:47:57.823Z,16.60
2022-08-17T09:51:05.530Z,16.57
2022-08-17T09:53:22.918Z,16.07
2022-08-17T09:56:18.624Z,15.80
2022-08-17T09:59:03.591Z,17.73
2022-08-17T10:01:38.536Z,17.93
2022-08-17T10:04:26.037Z,19.50
2022-08-17T10:07:07.131Z,18.53
2022-08-17T10:09:49.853Z,20.13
2022-08-17T10:12:33.111Z,21.30
2022-08-17T10:15:21.940Z,22.37
2022-08-17T10:18:07.753Z,24.73
2022-08-17T10:20:43.137Z,22.90
2022-08-17T10:23:34.904Z,21.70
2022-08-17T10:26:15.480Z,19.73
2022-08-17T10:28:50.781Z,22.27
2022-08-17T10:31:34.582Z,22.40
2022-08-17T10:34:41.513Z,21.93
2022-08-17T10:37:28.585Z,20.37
2022-08-17T10:40:09.114Z,21.80
2022-08-17T10:42:46.899Z,22.77
2022-08-17T10:45:26.497Z,23.77
2022-08-17T10:48:06.301Z,21.77
2022-08-17T10:50:50.382Z,21.13
2022-08-17T10:53:55.698Z,23.83
2022-08-17T10:56:43.897Z,24.93
2022-08-17T10:59:50.440Z,23.60
2022-08-17T11:02:35.080Z,20.53
2022-08-17T11:05:20.838Z,21.90
2022-08-17T11:08:12.968Z,24.10
2022-08-17T11:19:33.106Z,24.80
2022-08-17T11:23:02.672Z,25.63
2022-08-17T11:30:07.170Z,25.27
2022-08-17T11:33:01.423Z,29.67
2022-08-17T11:35:54.306Z,26.20
2022-08-17T11:39:25.007Z,30.03
2022-08-17T11:42:40.782Z,26.17
2022-08-17T11:46:08.172Z,31.87
2022-08-17T11:49:01.660Z,33.07
2022-08-17T11:52:14.448Z,32.00
2022-08-17T11:55:33.883Z,29.47
2022-08-17T11:58:30.994Z,36.83
2022-08-17T12:01:16.114Z,37.40
2022-08-17T12:04:31.996Z,37.47
2022-08-17T12:07:47.554Z,33.70
2022-08-17T12:10:34.481Z,34.90
2022-08-17T12:17:40.637Z,35.23
2022-08-17T12:20:43.487Z,32.63
2022-08-17T12:26:40.786Z,35.50
2022-08-17T12:32:46.838Z,27.83
2022-08-17T12:44:33.800Z,35.83
2022-08-17T12:47:07.667Z,30.43
2022-08-17T12:50:28.795Z,37.00
2022-08-17T12:57:13.434Z,39.13
2022-08-17T13:00:00.962Z,40.27
2022-08-17T13:02:49.760Z,41.60
2022-08-17T13:05:29.680Z,42.03
2022-08-17T13:08:01.745Z,45.47
2022-08-17T13:18:39.080Z,44.17
2022-08-17T13:21:12.601Z,43.70
2022-08-17T13:33:43.306Z,38.97
2022-08-17T13:36:19.394Z,39.67
2022-08-17T13:39:08.128Z,39.40
2022-08-17T13:41:41.603Z,42.13
2022-08-17T13:52:58.762Z,44.43
2022-08-17T13:56:37.655Z,38.00
2022-08-17T14:00:35.637Z,42.97
2022-08-17T14:03:06.472Z,42.77
2022-08-17T14:05:38.015Z,44.00
2022-08-17T14:08:08.090Z,45.97
2022-08-17T14:10:36.825Z,46.13
2022-08-17T14:13:05.636Z,42.97
2022-08-17T14:15:56.124Z,41.03
2022-08-17T14:18:54.308Z,37.20
2022-08-17T14:21:11.287Z,44.97
2022-08-17T14:23:40.993Z,40.07
2022-08-17T14:26:11.958Z,43.97
2022-08-17T14:28:43.031Z,42.87
2022-08-17T14:31:23.119Z,40.10
2022-08-17T14:33:51.473Z,43.83
2022-08-17T14:36:19.931Z,41.70
2022-08-17T14:38:49.579Z,42.97
2022-08-17T14:41:22.051Z,39.57
2022-08-17T14:43:52.939Z,42.40
2022-08-17T14:46:21.490Z,35.03
2022-08-17T14:48:57.405Z,36.97
2022-08-17T14:51:30.356Z,40.17
2022-08-17T14:53:59.866Z,37.47
2022-08-17T14:56:28.303Z,39.10
2022-08-17T14:59:03.342Z,38.60
2022-08-17T15:01:31.774Z,29.87
2022-08-17T15:04:00.857Z,36.83
2022-08-17T15:06:29.186Z,39.43
2022-08-17T15:08:57.509Z,27.03
2022-08-17T15:11:27.182Z,38.67
2022-08-17T15:13:55.346Z,36.67
2022-08-17T15:16:23.755Z,34.67
2022-08-17T15:18:52.755Z,36.13
2022-08-17T15:22:13.541Z,31.23
2022-08-17T15:24:41.910Z,36.17
2022-08-17T15:28:21.017Z,34.43
2022-08-17T15:30:50.814Z,33.63
2022-08-17T15:42:04.701Z,29.20
2022-08-17T15:44:35.007Z,25.60
2022-08-17T15:47:03.531Z,30.47
2022-08-17T15:49:31.604Z,28.80
2022-08-17T15:52:00.005Z,34.47
2022-08-17T15:54:34.525Z,31.87
2022-08-17T15:57:04.284Z,34.17
2022-08-17T15:59:35.834Z,35.03
2022-08-17T16:03:01.640Z,33.50
2022-08-17T16:04:52.740Z,38.90
2022-08-17T16:07:26.376Z,32.03
2022-08-17T16:09:55.212Z,39.70
2022-08-17T16:12:23.625Z,41.17
2022-08-17T16:14:53.379Z,40.50
2022-08-17T16:17:40.042Z,36.67
2022-08-17T16:20:09.991Z,40.67
2022-08-17T16:22:50.874Z,41.63
2022-08-17T16:25:23.075Z,37.30
2022-08-17T16:28:11.468Z,41.07
2022-08-17T16:30:42.512Z,40.10
2022-08-17T16:33:12.763Z,39.07
2022-08-17T16:35:42.190Z,36.83
2022-08-17T16:38:12.455Z,38.43
2022-08-17T16:40:41.833Z,30.57
2022-08-17T16:43:12.077Z,34.93
2022-08-17T16:45:42.626Z,35.70
2022-08-17T16:48:11.945Z,32.40
2022-08-17T16:50:40.423Z,32.13
2022-08-17T16:53:17.936Z,36.20
2022-08-17T16:55:47.379Z,34.03
2022-08-17T16:58:16.762Z,31.23
2022-08-17T17:00:48.895Z,31.87
2022-08-17T17:03:20.637Z,32.63
2022-08-17T17:06:00.329Z,35.33
2022-08-17T17:08:42.114Z,30.80
2022-08-17T17:11:15.870Z,28.33
2022-08-17T17:13:48.107Z,31.63
2022-08-17T17:16:24.065Z,29.60
2022-08-17T17:19:04.861Z,33.83
2022-08-17T17:21:42.956Z,32.00
2022-08-17T17:24:16.055Z,35.57
2022-08-17T17:26:58.568Z,27.17
2022-08-17T17:29:47.390Z,32.83
2022-08-17T17:32:22.660Z,33.00
2022-08-17T17:34:55.234Z,34.97
2022-08-17T17:37:28.639Z,34.80
2022-08-17T17:40:01.161Z,36.03
2022-08-17T17:42:33.039Z,31.63
2022-08-17T17:45:08.124Z,33.93
2022-08-17T17:47:38.173Z,33.47
2022-08-17T17:50:11.564Z,27.67
2022-08-17T17:52:48.422Z,29.47
2022-08-17T17:55:27.343Z,27.97
2022-08-17T17:58:06.564Z,27.10
2022-08-17T18:00:41.499Z,26.13
2022-08-17T18:03:25.715Z,27.90
2022-08-17T18:06:07.093Z,24.17
2022-08-17T18:08:50.771Z,30.47
2022-08-17T18:11:35.222Z,26.03
2022-08-17T18:14:30.581Z,24.43
2022-08-17T18:17:01.962Z,22.33
2022-08-17T18:19:33.047Z,24.57
2022-08-17T18:22:08.589Z,23.77
2022-08-17T18:24:44.942Z,24.57
2022-08-17T18:27:24.594Z,21.50
2022-08-17T18:29:54.674Z,19.53
2022-08-17T18:32:35.785Z,26.53
2022-08-17T18:35:35.247Z,25.53
2022-08-17T18:38:23.222Z,23.67
2022-08-17T18:41:01.371Z,26.23
2022-08-17T18:43:44.447Z,24.50
2022-08-17T18:46:29.632Z,20.37
2022-08-17T18:49:03.171Z,23.00
2022-08-17T18:51:40.366Z,25.13
2022-08-17T18:54:20.889Z,24.40
2022-08-17T18:56:54.973Z,24.93
2022-08-17T18:59:34.634Z,24.67
2022-08-17T19:02:32.543Z,23.63
2022-08-17T19:05:13.334Z,20.03
2022-08-17T19:07:45.520Z,20.43
2022-08-17T19:10:25.410Z,20.80
2022-08-17T19:13:00.423Z,22.80
2022-08-17T19:15:35.938Z,23.13
2022-08-17T19:18:15.128Z,23.67
2022-08-17T19:20:48.210Z,26.23
2022-08-17T19:23:23.952Z,20.00
2022-08-17T19:25:54.852Z,23.63
2022-08-17T19:28:30.447Z,21.97
2022-08-17T19:31:03.558Z,20.57
